createdAt,value
2019-04-01T00:00:32.929Z,8.78
2019-04-01T00:02:59.653Z,8.69
2019-04-01T00:05:26.366Z,8.66
2019-04-01T00:07:53.136Z,8.61
2019-04-01T00:10:20.773Z,8.62
2019-04-01T00:12:47.438Z,8.59
2019-04-01T00:15:14.141Z,8.53
2019-04-01T00:17:40.810Z,8.51
2019-04-01T00:20:07.448Z,8.47
2019-04-01T00:22:34.322Z,8.40
2019-04-01T00:25:01.132Z,8.38
2019-04-01T00:27:27.775Z,8.40
2019-04-01T00:29:54.476Z,8.35
2019-04-01T00:32:21.097Z,8.38
2019-04-01T00:34:47.772Z,8.32
2019-04-01T00:37:14.444Z,8.27
2019-04-01T00:39:41.158Z,8.21
2019-04-01T00:42:15.995Z,8.17
2019-04-01T00:44:42.703Z,8.15
2019-04-01T00:47:09.313Z,8.06
2019-04-01T00:49:36.113Z,8.04
2019-04-01T00:52:02.843Z,8.06
2019-04-01T00:54:29.617Z,8.00
2019-04-01T00:56:56.319Z,7.99
2019-04-01T00:59:23.031Z,7.86
2019-04-01T01:01:49.699Z,7.81
2019-04-01T01:04:16.440Z,7.85
2019-04-01T01:06:43.178Z,7.83
2019-04-01T01:09:09.875Z,7.81
2019-04-01T01:11:36.575Z,7.77
2019-04-01T01:14:03.591Z,7.71
2019-04-01T01:16:30.235Z,7.69
2019-04-01T01:18:57.856Z,7.71
2019-04-01T01:21:25.546Z,7.66
2019-04-01T01:23:52.180Z,7.61
2019-04-01T01:26:18.886Z,7.60
2019-04-01T01:28:45.590Z,7.64
2019-04-01T01:31:12.228Z,7.60
2019-04-01T01:33:38.880Z,7.57
2019-04-01T01:36:05.591Z,7.56
2019-04-01T01:38:32.198Z,7.54
2019-04-01T01:40:58.878Z,7.54
2019-04-01T01:43:26.566Z,7.40
2019-04-01T01:45:53.254Z,7.44
2019-04-01T01:48:19.994Z,7.38
2019-04-01T01:50:46.698Z,7.33
2019-04-01T01:53:13.323Z,7.32
2019-04-01T01:55:39.971Z,7.39
2019-04-01T01:58:06.716Z,7.38
2019-04-01T02:00:33.803Z,7.30
2019-04-01T02:03:00.431Z,7.22
2019-04-01T02:05:27.112Z,7.27
2019-04-01T02:07:53.718Z,7.19
2019-04-01T02:10:20.405Z,7.21
2019-04-01T02:12:47.067Z,7.18
2019-04-01T02:15:13.815Z,7.12
2019-04-01T02:17:40.534Z,7.13
2019-04-01T02:20:08.111Z,7.01
2019-04-01T02:22:35.839Z,6.89
2019-04-01T02:25:02.709Z,7.05
2019-04-01T02:27:29.379Z,6.96
2019-04-01T02:29:56.123Z,6.96
2019-04-01T02:32:22.845Z,6.93
2019-04-01T02:34:49.654Z,6.90
2019-04-01T02:37:16.304Z,6.87
2019-04-01T02:39:42.987Z,6.78
2019-04-01T02:42:09.790Z,6.77
2019-04-01T02:44:36.484Z,6.76
2019-04-01T02:47:03.197Z,6.67
2019-04-01T02:49:29.890Z,6.69
2019-04-01T02:51:56.499Z,6.67
2019-04-01T02:54:23.168Z,6.64
2019-04-01T02:56:49.836Z,6.67
2019-04-01T02:59:16.466Z,6.67
2019-04-01T03:01:43.182Z,6.68
2019-04-01T03:04:09.861Z,6.64
2019-04-01T03:06:36.536Z,6.60
2019-04-01T03:09:05.628Z,6.58
2019-04-01T03:11:32.324Z,6.56
2019-04-01T03:13:58.947Z,6.56
2019-04-01T03:16:25.649Z,6.51
2019-04-01T03:18:52.338Z,6.42
2019-04-01T03:21:19.180Z,6.41
2019-04-01T03:23:45.885Z,6.41
2019-04-01T03:26:12.588Z,6.34
2019-04-01T03:28:39.196Z,6.36
2019-04-01T03:31:05.878Z,6.32
2019-04-01T03:33:32.593Z,6.27
2019-04-01T03:35:59.198Z,6.20
2019-04-01T03:38:28.133Z,6.22
2019-04-01T03:40:54.420Z,6.23
2019-04-01T03:43:21.032Z,6.18
2019-04-01T03:45:47.685Z,6.12
2019-04-01T03:48:14.423Z,6.08
2019-04-01T03:50:41.066Z,5.97
2019-04-01T03:53:07.705Z,6.01
2019-04-01T03:55:34.636Z,5.97
2019-04-01T03:58:01.262Z,6.00
2019-04-01T04:00:27.873Z,6.07
2019-04-01T04:02:54.680Z,6.05
2019-04-01T04:05:21.402Z,6.04
2019-04-01T04:07:48.049Z,6.03
2019-04-01T04:10:14.764Z,5.99
2019-04-01T04:12:41.423Z,5.97
2019-04-01T04:15:08.277Z,5.98
2019-04-01T04:17:35.002Z,5.95
2019-04-01T04:20:01.718Z,5.95
2019-04-01T04:22:29.249Z,5.94
2019-04-01T04:24:56.115Z,5.92
2019-04-01T04:27:22.774Z,5.91
2019-04-01T04:29:49.609Z,5.89
2019-04-01T04:32:16.212Z,5.77
2019-04-01T04:34:42.835Z,5.77
2019-04-01T04:37:09.577Z,5.76
2019-04-01T04:39:36.206Z,5.80
2019-04-01T04:42:02.873Z,5.83
2019-04-01T04:44:29.538Z,5.83
2019-04-01T04:46:56.217Z,5.83
2019-04-01T04:49:22.920Z,5.77
2019-04-01T04:51:49.613Z,5.55
2019-04-01T04:54:16.302Z,5.62
2019-04-01T04:56:42.991Z,5.69
2019-04-01T04:59:09.720Z,5.67
2019-04-01T05:01:36.339Z,5.69
2019-04-01T05:04:03.011Z,5.75
2019-04-01T05:06:29.690Z,5.81
2019-04-01T05:08:56.451Z,5.79
2019-04-01T05:11:23.133Z,5.76
2019-04-01T05:13:50.022Z,5.76
2019-04-01T05:16:16.634Z,5.79
2019-04-01T05:18:43.305Z,5.73
2019-04-01T05:21:11.291Z,5.78
2019-04-01T05:23:39.571Z,5.84
2019-04-01T05:26:08.274Z,5.91
2019-04-01T05:28:36.993Z,6.01
2019-04-01T05:31:05.489Z,6.09
2019-04-01T05:33:33.448Z,6.11
2019-04-01T05:36:00.647Z,6.21
2019-04-01T05:38:27.282Z,6.23
2019-04-01T05:40:53.999Z,6.35
2019-04-01T05:43:20.685Z,6.46
2019-04-01T05:45:47.322Z,6.49
2019-04-01T05:48:15.585Z,6.58
2019-04-01T05:50:42.270Z,6.65
2019-04-01T05:53:08.910Z,6.73
2019-04-01T05:55:35.564Z,6.85
2019-04-01T05:58:02.247Z,7.05
2019-04-01T06:00:39.742Z,7.16
2019-04-01T06:03:06.503Z,7.31
2019-04-01T06:05:33.189Z,7.50
2019-04-01T06:07:59.891Z,7.59
2019-04-01T06:10:26.526Z,7.70
2019-04-01T06:12:53.256Z,7.88
2019-04-01T06:15:19.910Z,7.69
2019-04-01T06:17:46.531Z,7.99
2019-04-01T06:20:13.198Z,8.13
2019-04-01T06:22:39.830Z,8.16
2019-04-01T06:25:06.764Z,8.13
2019-04-01T06:27:33.692Z,8.39
2019-04-01T06:30:00.421Z,8.69
2019-04-01T06:32:27.128Z,8.98
2019-04-01T06:34:53.862Z,9.13
2019-04-01T06:37:20.477Z,9.19
2019-04-01T06:39:47.158Z,9.32
2019-04-01T06:42:13.852Z,9.47
2019-04-01T06:44:40.610Z,9.29
2019-04-01T06:47:08.413Z,9.50
2019-04-01T06:49:35.348Z,9.40
2019-04-01T06:52:02.065Z,9.43
2019-04-01T06:54:28.940Z,9.73
2019-04-01T06:56:55.727Z,10.10
2019-04-01T06:59:22.428Z,10.44
2019-04-01T07:01:49.121Z,10.46
2019-04-01T07:04:15.834Z,10.70
2019-04-01T07:06:42.573Z,11.11
2019-04-01T07:09:09.910Z,11.31
2019-04-01T07:11:36.774Z,11.64
2019-04-01T07:14:04.131Z,11.80
2019-04-01T07:16:31.891Z,12.00
2019-04-01T07:18:58.571Z,11.96
2019-04-01T07:21:54.454Z,12.33
2019-04-01T07:24:45.664Z,12.56
2019-04-01T07:27:34.028Z,12.79
2019-04-01T07:30:10.484Z,12.97
2019-04-01T07:32:39.163Z,13.37
2019-04-01T07:35:05.995Z,13.86
2019-04-01T07:37:32.593Z,14.05
2019-04-01T07:39:59.421Z,14.21
2019-04-01T07:42:26.123Z,14.55
2019-04-01T07:44:53.054Z,14.76
2019-04-01T07:47:20.007Z,14.90
2019-04-01T07:49:47.216Z,15.03
2019-04-01T07:52:14.923Z,15.30
2019-04-01T07:54:41.762Z,15.42
2019-04-01T07:57:08.367Z,15.52
2019-04-01T07:59:35.151Z,15.68
2019-04-01T08:02:02.076Z,16.03
2019-04-01T08:04:28.928Z,16.17
2019-04-01T08:06:55.685Z,16.59
2019-04-01T08:09:22.531Z,16.89
2019-04-01T08:11:50.195Z,16.96
2019-04-01T08:14:17.090Z,16.97
2019-04-01T08:16:43.791Z,17.04
2019-04-01T08:19:10.502Z,16.69
2019-04-01T08:21:37.114Z,16.63
2019-04-01T08:24:03.929Z,16.91
2019-04-01T08:26:30.550Z,17.19
2019-04-01T08:28:57.341Z,17.31
2019-04-01T08:31:24.108Z,17.25
2019-04-01T08:33:51.001Z,17.08
2019-04-01T08:36:18.344Z,16.94
2019-04-01T08:38:45.038Z,16.75
2019-04-01T08:41:11.684Z,17.05
2019-04-01T08:43:38.767Z,17.24
2019-04-01T08:46:05.465Z,17.60
2019-04-01T08:48:35.418Z,17.85
2019-04-01T08:51:01.152Z,18.37
2019-04-01T08:53:28.169Z,18.50
2019-04-01T08:56:00.531Z,18.53
2019-04-01T08:58:23.443Z,18.36
2019-04-01T09:00:50.091Z,18.18
2019-04-01T09:03:16.722Z,18.61
2019-04-01T09:05:43.522Z,18.45
2019-04-01T09:08:10.389Z,18.72
2019-04-01T09:10:37.615Z,18.98
2019-04-01T09:13:05.513Z,19.34
2019-04-01T09:15:32.327Z,19.49
2019-04-01T09:17:58.986Z,19.60
2019-04-01T09:20:25.764Z,19.57
2019-04-01T09:22:52.798Z,20.06
2019-04-01T09:25:20.009Z,20.34
2019-04-01T09:27:47.633Z,20.34
2019-04-01T09:30:18.492Z,20.16
2019-04-01T09:32:43.495Z,20.42
2019-04-01T09:35:10.493Z,20.52
2019-04-01T09:37:37.483Z,21.07
2019-04-01T09:40:05.996Z,21.42
2019-04-01T09:42:32.624Z,21.70
2019-04-01T09:44:59.362Z,21.80
2019-04-01T09:47:26.066Z,21.88
2019-04-01T09:49:52.790Z,21.66
2019-04-01T09:52:19.468Z,21.43
2019-04-01T09:54:46.155Z,21.99
2019-04-01T09:57:17.772Z,22.57
2019-04-01T09:59:41.496Z,22.71
2019-04-01T10:02:08.143Z,22.69
2019-04-01T10:04:34.799Z,22.78
2019-04-01T10:07:01.480Z,22.97
2019-04-01T10:09:28.198Z,23.28
2019-04-01T10:11:54.930Z,23.38
2019-04-01T10:14:21.597Z,23.45
2019-04-01T10:16:48.293Z,23.63
2019-04-01T10:19:14.958Z,23.61
2019-04-01T10:21:45.068Z,23.77
2019-04-01T10:24:10.246Z,23.30
2019-04-01T10:26:36.934Z,22.72
2019-04-01T10:29:03.633Z,22.10
2019-04-01T10:31:30.491Z,22.42
2019-04-01T10:33:58.196Z,22.54
2019-04-01T10:36:24.932Z,23.04
2019-04-01T10:38:51.531Z,21.67
2019-04-01T10:41:18.155Z,21.69
2019-04-01T10:43:44.869Z,22.54
2019-04-01T10:46:12.377Z,23.33
2019-04-01T10:48:39.218Z,23.97
2019-04-01T10:51:07.098Z,23.89
2019-04-01T10:53:33.777Z,24.20
2019-04-01T10:56:00.412Z,22.98
2019-04-01T10:58:27.330Z,23.69
2019-04-01T11:00:53.980Z,23.92
2019-04-01T11:03:20.663Z,24.20
2019-04-01T11:05:47.436Z,24.45
2019-04-01T11:08:14.214Z,24.15
2019-04-01T11:10:40.854Z,23.58
2019-04-01T11:13:07.563Z,23.35
2019-04-01T11:15:34.339Z,21.73
2019-04-01T11:18:00.986Z,21.43
2019-04-01T11:20:27.687Z,22.45
2019-04-01T11:22:54.290Z,22.89
2019-04-01T11:25:20.959Z,22.55
2019-04-01T11:27:47.663Z,22.45
2019-04-01T11:30:14.612Z,22.45
2019-04-01T11:32:41.329Z,22.58
2019-04-01T11:35:08.160Z,21.92
2019-04-01T11:37:36.058Z,21.86
2019-04-01T11:40:11.052Z,21.93
2019-04-01T11:42:35.850Z,22.38
2019-04-01T11:45:06.404Z,22.82
2019-04-01T11:47:33.329Z,23.90
2019-04-01T11:50:00.096Z,23.84
2019-04-01T11:52:27.114Z,24.24
2019-04-01T11:54:54.198Z,24.39
2019-04-01T11:57:20.988Z,24.39
2019-04-01T11:59:47.631Z,24.65
2019-04-01T12:02:14.489Z,24.65
2019-04-01T12:04:41.329Z,24.63
2019-04-01T12:07:08.264Z,24.43
2019-04-01T12:09:35.153Z,23.71
2019-04-01T12:12:03.309Z,22.79
2019-04-01T12:14:30.259Z,22.82
2019-04-01T12:16:57.004Z,23.75
2019-04-01T12:19:23.891Z,23.46
2019-04-01T12:21:51.330Z,23.46
2019-04-01T12:24:18.291Z,23.77
2019-04-01T12:26:45.212Z,24.23
2019-04-01T12:29:12.552Z,24.34
2019-04-01T12:31:40.435Z,24.67
2019-04-01T12:34:07.181Z,24.95
2019-04-01T12:36:35.029Z,24.69
2019-04-01T12:39:01.742Z,24.71
2019-04-01T12:41:30.292Z,23.85
2019-04-01T12:43:56.922Z,24.23
2019-04-01T12:46:23.594Z,24.61
2019-04-01T12:48:50.328Z,24.44
2019-04-01T12:51:17.064Z,23.98
2019-04-01T12:53:43.777Z,23.90
2019-04-01T12:56:10.491Z,23.90
2019-04-01T12:58:39.401Z,23.75
2019-04-01T13:01:06.137Z,22.67
2019-04-01T13:03:32.879Z,22.40
2019-04-01T13:05:59.620Z,22.55
2019-04-01T13:08:26.259Z,22.90
2019-04-01T13:10:56.382Z,23.64
2019-04-01T13:13:22.814Z,23.95
2019-04-01T13:15:49.686Z,23.95
2019-04-01T13:18:16.388Z,22.68
2019-04-01T13:20:42.996Z,22.83
2019-04-01T13:23:09.588Z,22.87
2019-04-01T13:25:36.287Z,22.74
2019-04-01T13:28:02.910Z,22.88
2019-04-01T13:30:29.562Z,23.07
2019-04-01T13:32:56.213Z,23.03
2019-04-01T13:35:23.010Z,23.37
2019-04-01T13:37:49.838Z,23.87
2019-04-01T13:40:19.388Z,24.10
2019-04-01T13:42:45.200Z,24.29
2019-04-01T13:45:12.436Z,23.57
2019-04-01T13:47:41.319Z,23.20
2019-04-01T13:50:07.826Z,23.32
2019-04-01T13:52:34.443Z,23.10
2019-04-01T13:55:01.131Z,23.31
2019-04-01T13:57:27.820Z,23.59
2019-04-01T13:59:54.653Z,23.54
2019-04-01T14:02:22.468Z,23.10
2019-04-01T14:04:49.185Z,22.77
2019-04-01T14:07:15.891Z,22.69
2019-04-01T14:09:42.551Z,22.33
2019-04-01T14:12:09.251Z,22.77
2019-04-01T14:14:35.959Z,22.42
2019-04-01T14:17:02.917Z,22.34
2019-04-01T14:19:29.560Z,22.69
2019-04-01T14:21:56.226Z,22.95
2019-04-01T14:24:22.904Z,23.06
2019-04-01T14:26:49.565Z,23.39
2019-04-01T14:29:16.772Z,22.81
2019-04-01T14:31:43.624Z,22.80
2019-04-01T14:34:22.897Z,22.79
2019-04-01T14:36:47.057Z,23.18
2019-04-01T14:39:13.919Z,23.08
2019-04-01T14:41:40.520Z,23.09
2019-04-01T14:44:07.253Z,23.36
2019-04-01T14:46:33.928Z,22.99
2019-04-01T14:49:02.744Z,22.68
2019-04-01T14:51:29.823Z,22.45
2019-04-01T14:53:56.532Z,22.12
2019-04-01T14:56:23.151Z,22.11
2019-04-01T14:58:49.821Z,22.25
2019-04-01T15:01:16.505Z,22.13
2019-04-01T15:03:43.202Z,21.92
2019-04-01T15:06:09.904Z,21.78
2019-04-01T15:08:36.703Z,21.73
2019-04-01T15:11:03.380Z,21.81
2019-04-01T15:13:30.018Z,22.01
2019-04-01T15:15:56.715Z,22.17
2019-04-01T15:18:23.346Z,22.19
2019-04-01T15:20:51.035Z,22.04
2019-04-01T15:23:17.703Z,21.98
2019-04-01T15:25:44.359Z,21.91
2019-04-01T15:28:11.025Z,21.93
2019-04-01T15:30:37.742Z,21.87
2019-04-01T15:33:04.490Z,21.65
2019-04-01T15:35:31.164Z,21.50
2019-04-01T15:37:57.897Z,21.52
2019-04-01T15:40:24.520Z,21.54
2019-04-01T15:42:51.330Z,21.46
2019-04-01T15:45:18.003Z,21.43
2019-04-01T15:47:44.822Z,21.43
2019-04-01T15:50:27.265Z,21.02
2019-04-01T15:52:42.022Z,21.01
2019-04-01T15:55:09.064Z,20.96
2019-04-01T15:57:35.718Z,20.91
2019-04-01T16:00:04.000Z,20.80
2019-04-01T16:02:30.691Z,20.42
2019-04-01T16:04:57.396Z,20.53
2019-04-01T16:07:24.103Z,20.47
2019-04-01T16:09:51.146Z,20.42
2019-04-01T16:12:18.648Z,20.36
2019-04-01T16:14:45.359Z,20.52
2019-04-01T16:17:12.979Z,20.27
2019-04-01T16:19:39.596Z,20.39
2019-04-01T16:22:06.253Z,20.32
2019-04-01T16:24:32.843Z,20.36
2019-04-01T16:26:59.463Z,20.36
2019-04-01T16:29:26.129Z,20.24
2019-04-01T16:31:55.392Z,20.27
2019-04-01T16:34:21.314Z,20.19
2019-04-01T16:36:47.986Z,20.20
2019-04-01T16:39:14.833Z,20.20
2019-04-01T16:41:41.529Z,20.17
2019-04-01T16:44:08.194Z,19.98
2019-04-01T16:46:34.868Z,19.99
2019-04-01T16:49:01.533Z,19.87
2019-04-01T16:51:28.263Z,19.82
2019-04-01T16:53:56.239Z,19.78
2019-04-01T16:56:23.070Z,19.71
2019-04-01T16:58:49.793Z,19.55
2019-04-01T17:01:16.452Z,19.49
2019-04-01T17:03:43.070Z,19.38
2019-04-01T17:06:10.774Z,19.22
2019-04-01T17:08:39.154Z,19.36
2019-04-01T17:11:05.967Z,19.36
2019-04-01T17:13:32.637Z,19.20
2019-04-01T17:16:01.576Z,19.16
2019-04-01T17:18:28.051Z,19.01
2019-04-01T17:20:54.736Z,18.86
2019-04-01T17:23:21.426Z,18.79
2019-04-01T17:25:48.142Z,18.71
2019-04-01T17:28:14.881Z,18.68
2019-04-01T17:30:41.492Z,18.62
2019-04-01T17:33:08.697Z,18.57
2019-04-01T17:35:35.646Z,18.51
2019-04-01T17:38:02.333Z,18.45
2019-04-01T17:40:29.096Z,18.36
2019-04-01T17:42:55.844Z,18.35
2019-04-01T17:45:28.982Z,18.26
2019-04-01T17:47:55.606Z,18.17
2019-04-01T17:50:22.312Z,18.05
2019-04-01T17:52:48.920Z,17.99
2019-04-01T17:55:17.042Z,17.94
2019-04-01T17:57:43.975Z,17.91
2019-04-01T18:00:15.876Z,17.84
2019-04-01T18:02:42.467Z,17.84
2019-04-01T18:05:12.742Z,17.78
2019-04-01T18:07:39.331Z,17.77
2019-04-01T18:10:06.026Z,17.77
2019-04-01T18:12:32.690Z,17.70
2019-04-01T18:14:59.304Z,17.64
2019-04-01T18:17:25.926Z,17.60
2019-04-01T18:19:53.154Z,17.61
2019-04-01T18:22:19.840Z,17.47
2019-04-01T18:24:46.489Z,17.42
2019-04-01T18:27:14.141Z,17.40
2019-04-01T18:29:40.906Z,17.26
2019-04-01T18:32:12.807Z,17.16
2019-04-01T18:34:39.600Z,16.97
2019-04-01T18:37:44.618Z,16.87
2019-04-01T18:40:15.671Z,16.77
2019-04-01T18:42:53.632Z,16.56
2019-04-01T18:45:20.327Z,16.45
2019-04-01T18:47:47.057Z,16.35
2019-04-01T18:50:14.406Z,16.39
2019-04-01T18:52:41.443Z,16.38
2019-04-01T18:55:08.346Z,16.29
2019-04-01T18:57:35.059Z,16.30
2019-04-01T19:00:01.770Z,16.26
2019-04-01T19:02:28.580Z,16.27
2019-04-01T19:04:55.175Z,16.19
2019-04-01T19:07:22.165Z,16.06
2019-04-01T19:09:48.992Z,15.98
2019-04-01T19:12:15.744Z,15.87
2019-04-01T19:14:42.568Z,15.71
2019-04-01T19:17:09.309Z,15.65
2019-04-01T19:19:35.919Z,15.52
2019-04-01T19:22:02.859Z,15.47
2019-04-01T19:24:29.592Z,15.43
2019-04-01T19:26:56.184Z,15.42
2019-04-01T19:29:22.809Z,15.42
2019-04-01T19:31:51.252Z,15.30
2019-04-01T19:34:18.091Z,15.30
2019-04-01T19:37:04.483Z,15.30
2019-04-01T19:39:35.819Z,15.23
2019-04-01T19:42:02.506Z,15.29
2019-04-01T19:44:29.245Z,15.32
2019-04-01T19:46:56.083Z,15.39
2019-04-01T19:49:23.033Z,15.33
2019-04-01T19:51:49.970Z,15.30
2019-04-01T19:54:16.714Z,15.27
2019-04-01T19:56:43.759Z,15.23
2019-04-01T19:59:10.394Z,15.12
2019-04-01T20:01:37.231Z,14.85
2019-04-01T20:04:03.974Z,14.83
2019-04-01T20:06:30.718Z,14.76
2019-04-01T20:08:57.357Z,14.68
2019-04-01T20:11:24.189Z,14.56
2019-04-01T20:13:54.832Z,14.48
2019-04-01T20:16:21.294Z,14.37
2019-04-01T20:19:03.253Z,14.18
2019-04-01T20:24:56.328Z,13.96
2019-04-01T20:27:25.119Z,13.93
2019-04-01T20:29:51.751Z,13.80
2019-04-01T20:32:19.976Z,13.71
2019-04-01T20:34:56.799Z,13.67
2019-04-01T20:37:15.761Z,13.56
2019-04-01T20:39:42.506Z,13.45
2019-04-01T20:42:09.442Z,13.36
2019-04-01T20:44:36.184Z,13.28
2019-04-01T20:47:03.029Z,13.29
2019-04-01T20:49:30.279Z,13.28
2019-04-01T20:51:57.318Z,13.21
2019-04-01T20:54:24.062Z,13.07
2019-04-01T20:56:50.698Z,13.00
2019-04-01T20:59:17.437Z,12.90
2019-04-01T21:01:44.184Z,12.86
2019-04-01T21:04:10.914Z,12.89
2019-04-01T21:06:37.661Z,12.78
2019-04-01T21:09:07.371Z,12.66
2019-04-01T21:11:34.007Z,12.60
2019-04-01T21:14:03.124Z,12.54
2019-04-01T21:16:30.047Z,12.49
2019-04-01T21:18:56.782Z,12.41
2019-04-01T21:21:23.537Z,12.37
2019-04-01T21:23:50.271Z,12.31
2019-04-01T21:26:16.896Z,12.28
2019-04-01T21:28:43.534Z,12.20
2019-04-01T21:31:10.271Z,12.15
2019-04-01T21:33:36.908Z,12.07
2019-04-01T21:36:03.546Z,12.00
2019-04-01T21:38:30.296Z,11.97
2019-04-01T21:40:56.944Z,11.97
2019-04-01T21:43:23.564Z,11.94
2019-04-01T21:45:50.255Z,11.84
2019-04-01T21:48:17.043Z,11.76
2019-04-01T21:50:43.776Z,11.75
2019-04-01T21:53:10.530Z,11.65
2019-04-01T21:55:37.262Z,11.55
2019-04-01T21:58:04.005Z,11.52
2019-04-01T22:00:47.945Z,11.50
2019-04-01T22:03:14.890Z,11.43
2019-04-01T22:05:43.236Z,11.43
2019-04-01T22:08:10.211Z,11.35
2019-04-01T22:10:37.976Z,11.27
2019-04-01T22:13:04.707Z,11.32
2019-04-01T22:15:31.446Z,11.19
2019-04-01T22:17:58.255Z,11.21
2019-04-01T22:20:25.028Z,11.01
2019-04-01T22:22:51.785Z,11.05
2019-04-01T22:25:19.530Z,10.96
2019-04-01T22:27:46.274Z,10.91
2019-04-01T22:30:13.111Z,10.87
2019-04-01T22:32:39.860Z,10.78
2019-04-01T22:35:08.007Z,10.68
2019-04-01T22:37:37.216Z,10.66
2019-04-01T22:40:05.500Z,10.64
2019-04-01T22:42:32.241Z,10.60
2019-04-01T22:44:58.982Z,10.53
2019-04-01T22:47:25.620Z,10.50
2019-04-01T22:49:52.453Z,10.44
2019-04-01T22:52:19.201Z,10.33
2019-04-01T22:54:45.794Z,10.32
2019-04-01T22:57:12.575Z,10.25
2019-04-01T22:59:39.307Z,10.19
2019-04-01T23:02:06.053Z,10.15
2019-04-01T23:04:32.796Z,10.08
2019-04-01T23:06:59.660Z,10.03
2019-04-01T23:09:26.375Z,10.04
2019-04-01T23:11:53.498Z,9.96
2019-04-01T23:14:20.667Z,9.91
2019-04-01T23:16:47.408Z,9.91
2019-04-01T23:19:14.151Z,9.91
2019-04-01T23:21:41.006Z,9.87
2019-04-01T23:24:07.603Z,9.82
2019-04-01T23:26:34.366Z,9.84
2019-04-01T23:29:01.104Z,9.79
2019-04-01T23:31:27.843Z,9.81
2019-04-01T23:33:54.478Z,9.78
2019-04-01T23:36:21.430Z,9.71
2019-04-01T23:38:48.264Z,9.68
2019-04-01T23:41:15.115Z,9.65
2019-04-01T23:43:41.870Z,9.59
2019-04-01T23:46:08.607Z,9.55
2019-04-01T23:48:35.337Z,9.54
2019-04-01T23:51:02.169Z,9.52
2019-04-01T23:53:28.907Z,9.45
2019-04-01T23:55:55.654Z,9.38
2019-04-01T23:58:22.861Z,9.38
